sensor_id;sensor_type;location;lat;lon;timestamp;pressure;altitude;pressure_sealevel;temperature;humidity
22025;BME280;11176;51.448;6.650;2022-07-04T00:01:22;45292.31;;;-141.29;69.93
22025;BME280;11176;51.448;6.650;2022-07-04T00:03:48;45306.31;;;-141.29;69.29
22025;BME280;11176;51.448;6.650;2022-07-04T00:06:15;45302.31;;;-141.29;69.34
22025;BME280;11176;51.448;6.650;2022-07-04T00:08:42;45306.31;;;-141.29;69.42
22025;BME280;11176;51.448;6.650;2022-07-04T00:11:09;45290.31;;;-141.29;70.47
22025;BME280;11176;51.448;6.650;2022-07-04T00:13:35;45306.31;;;-141.29;70.67
22025;BME280;11176;51.448;6.650;2022-07-04T00:16:02;45302.31;;;-141.29;70.36
22025;BME280;11176;51.448;6.650;2022-07-04T00:18:29;45306.31;;;-141.29;70.50
22025;BME280;11176;51.448;6.650;2022-07-04T00:20:55;45286.31;;;-141.29;69.77
22025;BME280;11176;51.448;6.650;2022-07-04T00:23:21;45286.31;;;-141.29;69.55
22025;BME280;11176;51.448;6.650;2022-07-04T00:25:48;45288.31;;;-141.29;68.92
22025;BME280;11176;51.448;6.650;2022-07-04T00:28:15;45308.31;;;-141.29;69.30
22025;BME280;11176;51.448;6.650;2022-07-04T00:30:42;45282.31;;;-141.29;69.92
22025;BME280;11176;51.448;6.650;2022-07-04T00:33:12;45302.31;;;-141.29;69.14
22025;BME280;11176;51.448;6.650;2022-07-04T00:35:39;45298.31;;;-141.29;68.85
22025;BME280;11176;51.448;6.650;2022-07-04T00:38:06;45290.31;;;-141.29;68.86
22025;BME280;11176;51.448;6.650;2022-07-04T00:40:32;45298.31;;;-141.29;68.92
22025;BME280;11176;51.448;6.650;2022-07-04T00:43:03;45292.31;;;-141.29;68.67
22025;BME280;11176;51.448;6.650;2022-07-04T00:45:30;45308.31;;;-141.29;69.23
22025;BME280;11176;51.448;6.650;2022-07-04T00:47:57;45292.31;;;-141.29;69.53
22025;BME280;11176;51.448;6.650;2022-07-04T00:50:24;45288.31;;;-141.29;70.06
22025;BME280;11176;51.448;6.650;2022-07-04T00:52:52;45282.31;;;-141.29;69.83
22025;BME280;11176;51.448;6.650;2022-07-04T00:55:21;45284.31;;;-141.29;70.11
22025;BME280;11176;51.448;6.650;2022-07-04T00:57:48;45290.31;;;-141.29;70.72
22025;BME280;11176;51.448;6.650;2022-07-04T01:00:15;45294.31;;;-141.29;71.40
22025;BME280;11176;51.448;6.650;2022-07-04T01:02:41;45306.31;;;-141.29;72.32
22025;BME280;11176;51.448;6.650;2022-07-04T01:05:08;45314.28;;;-141.29;72.41
22025;BME280;11176;51.448;6.650;2022-07-04T01:07:36;45300.31;;;-141.29;73.17
22025;BME280;11176;51.448;6.650;2022-07-04T01:10:02;45298.31;;;-141.29;73.64
22025;BME280;11176;51.448;6.650;2022-07-04T01:12:30;45298.31;;;-141.29;74.11
22025;BME280;11176;51.448;6.650;2022-07-04T01:14:57;45314.28;;;-141.29;74.81
22025;BME280;11176;51.448;6.650;2022-07-04T01:17:24;45318.28;;;-141.29;75.29
22025;BME280;11176;51.448;6.650;2022-07-04T01:19:50;45310.31;;;-141.29;76.16
22025;BME280;11176;51.448;6.650;2022-07-04T01:22:17;45312.31;;;-141.29;76.15
22025;BME280;11176;51.448;6.650;2022-07-04T01:24:45;45318.28;;;-141.29;76.18
22025;BME280;11176;51.448;6.650;2022-07-04T01:27:12;45314.28;;;-141.29;75.67
22025;BME280;11176;51.448;6.650;2022-07-04T01:29:39;45312.31;;;-141.29;75.56
22025;BME280;11176;51.448;6.650;2022-07-04T01:32:07;45330.28;;;-141.29;75.29
22025;BME280;11176;51.448;6.650;2022-07-04T01:34:34;45302.31;;;-141.29;75.12
22025;BME280;11176;51.448;6.650;2022-07-04T01:37:08;45314.28;;;-141.29;75.27
22025;BME280;11176;51.448;6.650;2022-07-04T01:39:35;45310.31;;;-141.29;75.74
22025;BME280;11176;51.448;6.650;2022-07-04T01:42:01;45304.31;;;-141.29;76.29
22025;BME280;11176;51.448;6.650;2022-07-04T01:44:28;45318.28;;;-141.29;76.88
22025;BME280;11176;51.448;6.650;2022-07-04T01:46:54;45316.28;;;-141.29;77.62
22025;BME280;11176;51.448;6.650;2022-07-04T01:49:21;45302.31;;;-141.29;78.05
22025;BME280;11176;51.448;6.650;2022-07-04T01:51:49;45312.31;;;-141.29;78.33
22025;BME280;11176;51.448;6.650;2022-07-04T01:54:16;45322.28;;;-141.29;78.86
22025;BME280;11176;51.448;6.650;2022-07-04T01:56:43;45322.28;;;-141.29;79.40
22025;BME280;11176;51.448;6.650;2022-07-04T01:59:10;45340.28;;;-141.29;79.81
22025;BME280;11176;51.448;6.650;2022-07-04T02:01:37;45338.28;;;-141.29;80.01
22025;BME280;11176;51.448;6.650;2022-07-04T02:04:06;45306.31;;;-141.29;79.77
22025;BME280;11176;51.448;6.650;2022-07-04T02:06:33;45314.28;;;-141.29;79.62
22025;BME280;11176;51.448;6.650;2022-07-04T02:09:00;45328.28;;;-141.29;79.92
22025;BME280;11176;51.448;6.650;2022-07-04T02:11:44;45346.28;;;-141.29;80.43
22025;BME280;11176;51.448;6.650;2022-07-04T02:14:31;45346.28;;;-141.29;81.19
22025;BME280;11176;51.448;6.650;2022-07-04T02:16:58;45314.28;;;-141.29;81.46
22025;BME280;11176;51.448;6.650;2022-07-04T02:19:25;45322.28;;;-141.29;81.63
22025;BME280;11176;51.448;6.650;2022-07-04T02:21:52;45346.28;;;-141.29;81.75
22025;BME280;11176;51.448;6.650;2022-07-04T02:24:19;45330.28;;;-141.29;81.97
22025;BME280;11176;51.448;6.650;2022-07-04T02:26:47;45346.28;;;-141.29;81.69
22025;BME280;11176;51.448;6.650;2022-07-04T02:29:13;45366.25;;;-141.29;81.84
22025;BME280;11176;51.448;6.650;2022-07-04T02:31:40;45340.28;;;-141.29;82.15
22025;BME280;11176;51.448;6.650;2022-07-04T02:34:07;45330.28;;;-141.29;82.59
22025;BME280;11176;51.448;6.650;2022-07-04T02:36:34;45334.28;;;-141.29;82.57
22025;BME280;11176;51.448;6.650;2022-07-04T02:39:00;45346.28;;;-141.29;82.90
22025;BME280;11176;51.448;6.650;2022-07-04T02:41:27;45312.31;;;-141.29;83.07
22025;BME280;11176;51.448;6.650;2022-07-04T02:43:53;45350.28;;;-141.29;83.41
22025;BME280;11176;51.448;6.650;2022-07-04T02:46:20;45348.28;;;-141.29;83.54
22025;BME280;11176;51.448;6.650;2022-07-04T02:48:46;45344.28;;;-141.29;83.61
22025;BME280;11176;51.448;6.650;2022-07-04T02:51:13;45346.28;;;-141.29;83.94
22025;BME280;11176;51.448;6.650;2022-07-04T02:53:39;45352.28;;;-141.29;84.21
22025;BME280;11176;51.448;6.650;2022-07-04T02:56:06;45340.28;;;-141.29;84.60
22025;BME280;11176;51.448;6.650;2022-07-04T02:58:32;45350.28;;;-141.29;84.91
22025;BME280;11176;51.448;6.650;2022-07-04T03:00:59;45350.28;;;-141.29;85.18
22025;BME280;11176;51.448;6.650;2022-07-04T03:03:26;45362.25;;;-141.29;85.51
22025;BME280;11176;51.448;6.650;2022-07-04T03:05:53;45366.25;;;-141.29;85.59
22025;BME280;11176;51.448;6.650;2022-07-04T03:08:20;45330.28;;;-141.29;85.58
22025;BME280;11176;51.448;6.650;2022-07-04T03:10:49;45332.28;;;-141.29;85.71
22025;BME280;11176;51.448;6.650;2022-07-04T03:13:17;45352.28;;;-141.29;86.13
22025;BME280;11176;51.448;6.650;2022-07-04T03:15:44;45354.25;;;-141.29;86.28
22025;BME280;11176;51.448;6.650;2022-07-04T03:18:11;45346.28;;;-141.29;86.70
22025;BME280;11176;51.448;6.650;2022-07-04T03:20:38;45346.28;;;-141.29;86.94
22025;BME280;11176;51.448;6.650;2022-07-04T03:23:05;45354.25;;;-141.29;87.11
22025;BME280;11176;51.448;6.650;2022-07-04T03:25:31;45354.25;;;-141.29;86.89
22025;BME280;11176;51.448;6.650;2022-07-04T03:27:58;45374.25;;;-141.29;86.84
22025;BME280;11176;51.448;6.650;2022-07-04T03:30:24;45346.28;;;-141.29;86.77
22025;BME280;11176;51.448;6.650;2022-07-04T03:32:51;45362.25;;;-141.29;86.49
22025;BME280;11176;51.448;6.650;2022-07-04T03:35:18;45354.25;;;-141.29;86.26
22025;BME280;11176;51.448;6.650;2022-07-04T03:37:45;45358.25;;;-141.29;86.23
22025;BME280;11176;51.448;6.650;2022-07-04T03:40:11;45348.28;;;-141.29;86.12
22025;BME280;11176;51.448;6.650;2022-07-04T03:42:38;45340.28;;;-141.29;86.57
22025;BME280;11176;51.448;6.650;2022-07-04T03:45:05;45358.25;;;-141.29;86.68
22025;BME280;11176;51.448;6.650;2022-07-04T03:47:32;45368.25;;;-141.29;86.50
22025;BME280;11176;51.448;6.650;2022-07-04T03:49:59;45368.25;;;-141.29;86.88
22025;BME280;11176;51.448;6.650;2022-07-04T03:52:25;45358.25;;;-141.29;87.05
22025;BME280;11176;51.448;6.650;2022-07-04T03:54:52;45366.25;;;-141.29;87.39
22025;BME280;11176;51.448;6.650;2022-07-04T03:57:19;45350.28;;;-141.29;87.37
22025;BME280;11176;51.448;6.650;2022-07-04T03:59:45;45362.25;;;-141.29;87.19
22025;BME280;11176;51.448;6.650;2022-07-04T04:02:12;45366.25;;;-141.29;86.99
22025;BME280;11176;51.448;6.650;2022-07-04T04:04:38;45350.28;;;-141.29;87.11
22025;BME280;11176;51.448;6.650;2022-07-04T04:07:23;45370.25;;;-141.29;87.19
22025;BME280;11176;51.448;6.650;2022-07-04T04:09:50;45382.25;;;-141.29;87.52
22025;BME280;11176;51.448;6.650;2022-07-04T04:12:17;45358.25;;;-141.29;87.84
22025;BME280;11176;51.448;6.650;2022-07-04T04:14:43;45350.28;;;-141.29;87.85
22025;BME280;11176;51.448;6.650;2022-07-04T04:17:10;45378.25;;;-141.29;88.29
22025;BME280;11176;51.448;6.650;2022-07-04T04:19:36;45354.25;;;-141.29;88.54
22025;BME280;11176;51.448;6.650;2022-07-04T04:22:03;45360.25;;;-141.29;88.44
22025;BME280;11176;51.448;6.650;2022-07-04T04:24:29;45358.25;;;-141.29;88.10
22025;BME280;11176;51.448;6.650;2022-07-04T04:26:56;45364.25;;;-141.29;87.76
22025;BME280;11176;51.448;6.650;2022-07-04T04:29:22;45364.25;;;-141.29;87.63
22025;BME280;11176;51.448;6.650;2022-07-04T04:31:49;45358.25;;;-141.29;87.34
22025;BME280;11176;51.448;6.650;2022-07-04T04:34:15;45344.28;;;-141.29;87.04
22025;BME280;11176;51.448;6.650;2022-07-04T04:36:41;45362.25;;;-141.29;86.85
22025;BME280;11176;51.448;6.650;2022-07-04T04:39:08;45358.25;;;-141.29;86.43
22025;BME280;11176;51.448;6.650;2022-07-04T04:41:34;45362.25;;;-141.29;86.27
22025;BME280;11176;51.448;6.650;2022-07-04T04:44:01;45354.25;;;-141.29;86.30
22025;BME280;11176;51.448;6.650;2022-07-04T04:46:27;45342.28;;;-141.29;86.24
22025;BME280;11176;51.448;6.650;2022-07-04T04:48:54;45350.28;;;-141.29;85.80
22025;BME280;11176;51.448;6.650;2022-07-04T04:51:20;45344.28;;;-141.29;85.65
22025;BME280;11176;51.448;6.650;2022-07-04T04:53:47;45350.28;;;-141.29;85.37
22025;BME280;11176;51.448;6.650;2022-07-04T04:56:13;45334.28;;;-141.29;85.18
22025;BME280;11176;51.448;6.650;2022-07-04T04:58:40;45326.28;;;-141.29;85.21
22025;BME280;11176;51.448;6.650;2022-07-04T05:01:07;45346.28;;;-141.29;85.23
22025;BME280;11176;51.448;6.650;2022-07-04T05:03:53;45334.28;;;-141.29;85.12
22025;BME280;11176;51.448;6.650;2022-07-04T05:06:20;45340.28;;;-141.29;85.05
22025;BME280;11176;51.448;6.650;2022-07-04T05:08:46;45350.28;;;-141.29;84.88
22025;BME280;11176;51.448;6.650;2022-07-04T05:11:13;45350.28;;;-141.29;84.88
22025;BME280;11176;51.448;6.650;2022-07-04T05:13:39;45354.25;;;-141.29;84.65
22025;BME280;11176;51.448;6.650;2022-07-04T05:16:06;45350.28;;;-141.29;84.89
22025;BME280;11176;51.448;6.650;2022-07-04T05:18:32;45322.28;;;-141.29;86.08
22025;BME280;11176;51.448;6.650;2022-07-04T05:20:59;45326.28;;;-141.29;86.03
22025;BME280;11176;51.448;6.650;2022-07-04T05:23:25;45344.28;;;-141.29;85.56
22025;BME280;11176;51.448;6.650;2022-07-04T05:25:52;45318.28;;;-141.29;85.62
22025;BME280;11176;51.448;6.650;2022-07-04T05:28:19;45322.28;;;-141.29;85.56
22025;BME280;11176;51.448;6.650;2022-07-04T05:30:45;45320.28;;;-141.29;85.28
22025;BME280;11176;51.448;6.650;2022-07-04T05:33:12;45326.28;;;-141.29;85.55
22025;BME280;11176;51.448;6.650;2022-07-04T05:35:38;45312.31;;;-141.29;85.33
22025;BME280;11176;51.448;6.650;2022-07-04T05:38:05;45326.28;;;-141.29;85.33
22025;BME280;11176;51.448;6.650;2022-07-04T05:40:31;45330.28;;;-141.29;85.05
22025;BME280;11176;51.448;6.650;2022-07-04T05:42:57;45324.28;;;-141.29;84.61
22025;BME280;11176;51.448;6.650;2022-07-04T05:45:24;45332.28;;;-141.29;84.92
22025;BME280;11176;51.448;6.650;2022-07-04T05:47:51;45334.28;;;-141.29;84.64
22025;BME280;11176;51.448;6.650;2022-07-04T05:50:17;45326.28;;;-141.29;84.46
22025;BME280;11176;51.448;6.650;2022-07-04T05:52:44;45322.28;;;-141.29;83.94
22025;BME280;11176;51.448;6.650;2022-07-04T05:55:10;45306.31;;;-141.29;83.84
22025;BME280;11176;51.448;6.650;2022-07-04T05:57:37;45318.28;;;-141.29;83.23
22025;BME280;11176;51.448;6.650;2022-07-04T06:00:11;45302.31;;;-141.29;82.64
22025;BME280;11176;51.448;6.650;2022-07-04T06:02:38;45310.31;;;-141.29;82.21
22025;BME280;11176;51.448;6.650;2022-07-04T06:05:04;45314.28;;;-141.29;82.31
22025;BME280;11176;51.448;6.650;2022-07-04T06:07:31;45318.28;;;-141.29;82.04
22025;BME280;11176;51.448;6.650;2022-07-04T06:09:57;45322.28;;;-141.29;81.52
22025;BME280;11176;51.448;6.650;2022-07-04T06:12:24;45314.28;;;-141.29;81.27
22025;BME280;11176;51.448;6.650;2022-07-04T06:14:50;45312.31;;;-141.29;80.85
22025;BME280;11176;51.448;6.650;2022-07-04T06:17:17;45310.31;;;-141.29;80.12
22025;BME280;11176;51.448;6.650;2022-07-04T06:19:43;45322.28;;;-141.29;79.75
22025;BME280;11176;51.448;6.650;2022-07-04T06:22:10;45318.28;;;-141.29;79.31
22025;BME280;11176;51.448;6.650;2022-07-04T06:24:36;45310.31;;;-141.29;78.63
22025;BME280;11176;51.448;6.650;2022-07-04T06:27:03;45318.28;;;-141.29;78.10
22025;BME280;11176;51.448;6.650;2022-07-04T06:29:29;45302.31;;;-141.29;77.94
22025;BME280;11176;51.448;6.650;2022-07-04T06:31:56;45304.31;;;-141.29;78.08
22025;BME280;11176;51.448;6.650;2022-07-04T06:34:22;45292.31;;;-141.29;77.95
22025;BME280;11176;51.448;6.650;2022-07-04T06:37:08;45300.31;;;-141.29;77.46
22025;BME280;11176;51.448;6.650;2022-07-04T06:39:34;45304.31;;;-141.29;76.68
22025;BME280;11176;51.448;6.650;2022-07-04T06:42:01;45290.31;;;-141.29;75.95
22025;BME280;11176;51.448;6.650;2022-07-04T06:44:27;45306.31;;;-141.29;74.53
22025;BME280;11176;51.448;6.650;2022-07-04T06:46:54;45302.31;;;-141.29;73.90
22025;BME280;11176;51.448;6.650;2022-07-04T06:49:20;45312.31;;;-141.29;73.96
22025;BME280;11176;51.448;6.650;2022-07-04T06:51:47;45286.31;;;-141.29;73.79
22025;BME280;11176;51.448;6.650;2022-07-04T06:54:13;45286.31;;;-141.29;71.69
22025;BME280;11176;51.448;6.650;2022-07-04T06:56:40;45286.31;;;-141.29;70.36
22025;BME280;11176;51.448;6.650;2022-07-04T06:59:06;45284.31;;;-141.29;70.45
22025;BME280;11176;51.448;6.650;2022-07-04T07:01:33;45290.31;;;-141.29;70.55
22025;BME280;11176;51.448;6.650;2022-07-04T07:03:59;45296.31;;;-141.29;70.93
22025;BME280;11176;51.448;6.650;2022-07-04T07:06:26;45286.31;;;-141.29;70.97
22025;BME280;11176;51.448;6.650;2022-07-04T07:08:53;45284.31;;;-141.29;70.91
22025;BME280;11176;51.448;6.650;2022-07-04T07:11:19;45288.31;;;-141.29;70.68
22025;BME280;11176;51.448;6.650;2022-07-04T07:13:49;45286.31;;;-141.29;70.55
22025;BME280;11176;51.448;6.650;2022-07-04T07:16:18;45302.31;;;-141.29;69.30
22025;BME280;11176;51.448;6.650;2022-07-04T07:18:45;45268.34;;;-141.29;69.21
22025;BME280;11176;51.448;6.650;2022-07-04T07:21:12;45282.31;;;-141.29;69.28
22025;BME280;11176;51.448;6.650;2022-07-04T07:23:41;45278.31;;;-141.29;69.01
22025;BME280;11176;51.448;6.650;2022-07-04T07:26:08;45294.31;;;-141.29;67.71
22025;BME280;11176;51.448;6.650;2022-07-04T07:28:35;45278.31;;;-141.29;67.43
22025;BME280;11176;51.448;6.650;2022-07-04T07:31:02;45278.31;;;-141.29;67.32
22025;BME280;11176;51.448;6.650;2022-07-04T07:33:29;45284.31;;;-141.29;63.46
22025;BME280;11176;51.448;6.650;2022-07-04T07:35:55;45282.31;;;-141.29;64.03
22025;BME280;11176;51.448;6.650;2022-07-04T07:38:22;45278.31;;;-141.29;63.90
22025;BME280;11176;51.448;6.650;2022-07-04T07:40:48;45260.34;;;-141.29;63.72
22025;BME280;11176;51.448;6.650;2022-07-04T07:43:15;45292.31;;;-141.29;63.26
22025;BME280;11176;51.448;6.650;2022-07-04T07:45:41;45258.34;;;-141.29;63.12
22025;BME280;11176;51.448;6.650;2022-07-04T07:48:08;45254.34;;;-141.29;63.30
22025;BME280;11176;51.448;6.650;2022-07-04T07:50:34;45272.34;;;-141.29;62.43
22025;BME280;11176;51.448;6.650;2022-07-04T07:53:00;45274.34;;;-141.29;61.82
22025;BME280;11176;51.448;6.650;2022-07-04T07:55:27;45268.34;;;-141.29;61.02
22025;BME280;11176;51.448;6.650;2022-07-04T07:57:54;45260.34;;;-141.29;62.30
22025;BME280;11176;51.448;6.650;2022-07-04T08:00:20;45260.34;;;-141.29;62.82
22025;BME280;11176;51.448;6.650;2022-07-04T08:03:07;45270.34;;;-141.29;62.36
22025;BME280;11176;51.448;6.650;2022-07-04T08:05:52;45286.31;;;-141.29;62.31
22025;BME280;11176;51.448;6.650;2022-07-04T08:08:19;45266.34;;;-141.29;63.86
22025;BME280;11176;51.448;6.650;2022-07-04T08:10:48;45274.34;;;-141.29;63.42
22025;BME280;11176;51.448;6.650;2022-07-04T08:13:15;45254.34;;;-141.29;63.18
22025;BME280;11176;51.448;6.650;2022-07-04T08:15:41;45262.34;;;-141.29;62.43
22025;BME280;11176;51.448;6.650;2022-07-04T08:18:08;45274.34;;;-141.29;61.97
22025;BME280;11176;51.448;6.650;2022-07-04T08:20:34;45252.34;;;-141.29;61.90
22025;BME280;11176;51.448;6.650;2022-07-04T08:23:21;45238.38;;;-141.29;62.02
22025;BME280;11176;51.448;6.650;2022-07-04T08:25:47;45250.34;;;-141.29;62.34
22025;BME280;11176;51.448;6.650;2022-07-04T08:28:14;45248.34;;;-141.29;60.28
22025;BME280;11176;51.448;6.650;2022-07-04T08:30:40;45252.34;;;-141.29;60.33
22025;BME280;11176;51.448;6.650;2022-07-04T08:33:07;45244.34;;;-141.29;60.05
22025;BME280;11176;51.448;6.650;2022-07-04T08:35:33;45242.34;;;-141.29;59.56
22025;BME280;11176;51.448;6.650;2022-07-04T08:38:00;45242.34;;;-141.29;59.59
22025;BME280;11176;51.448;6.650;2022-07-04T08:40:28;45248.34;;;-141.29;59.78
22025;BME280;11176;51.448;6.650;2022-07-04T08:42:55;45254.34;;;-141.29;58.48
22025;BME280;11176;51.448;6.650;2022-07-04T08:45:26;45242.34;;;-141.29;58.93
22025;BME280;11176;51.448;6.650;2022-07-04T08:48:01;45254.34;;;-141.29;58.28
22025;BME280;11176;51.448;6.650;2022-07-04T08:50:33;45232.38;;;-141.29;58.63
22025;BME280;11176;51.448;6.650;2022-07-04T08:53:02;45246.34;;;-141.29;59.29
22025;BME280;11176;51.448;6.650;2022-07-04T08:55:29;45246.34;;;-141.29;57.99
22025;BME280;11176;51.448;6.650;2022-07-04T08:58:15;45238.38;;;-141.29;57.40
22025;BME280;11176;51.448;6.650;2022-07-04T09:01:00;45236.38;;;-141.29;56.24
22025;BME280;11176;51.448;6.650;2022-07-04T09:03:28;45236.38;;;-141.29;56.96
22025;BME280;11176;51.448;6.650;2022-07-04T09:05:55;45240.34;;;-141.29;57.51
22025;BME280;11176;51.448;6.650;2022-07-04T09:08:22;45222.38;;;-141.29;55.85
22025;BME280;11176;51.448;6.650;2022-07-04T09:10:50;45238.38;;;-141.29;53.28
22025;BME280;11176;51.448;6.650;2022-07-04T09:13:17;45222.38;;;-141.29;54.10
22025;BME280;11176;51.448;6.650;2022-07-04T09:15:47;45248.34;;;-141.29;56.21
22025;BME280;11176;51.448;6.650;2022-07-04T09:21:00;45230.38;;;-141.29;56.09
22025;BME280;11176;51.448;6.650;2022-07-04T09:23:29;45218.38;;;-141.29;56.47
22025;BME280;11176;51.448;6.650;2022-07-04T09:26:20;45226.38;;;-141.29;56.67
22025;BME280;11176;51.448;6.650;2022-07-04T09:28:54;45234.38;;;-141.29;55.31
22025;BME280;11176;51.448;6.650;2022-07-04T09:31:24;45244.34;;;-141.29;55.92
22025;BME280;11176;51.448;6.650;2022-07-04T09:34:01;45214.38;;;-141.29;54.21
22025;BME280;11176;51.448;6.650;2022-07-04T09:36:33;45226.38;;;-141.29;53.60
22025;BME280;11176;51.448;6.650;2022-07-04T09:41:59;45206.38;;;-141.29;54.89
22025;BME280;11176;51.448;6.650;2022-07-04T09:44:44;45240.34;;;-141.29;53.68
22025;BME280;11176;51.448;6.650;2022-07-04T09:47:28;45222.38;;;-141.29;53.25
22025;BME280;11176;51.448;6.650;2022-07-04T09:52:31;45210.38;;;-141.29;53.28
22025;BME280;11176;51.448;6.650;2022-07-04T09:55:00;45220.38;;;-141.29;53.21
22025;BME280;11176;51.448;6.650;2022-07-04T09:57:29;45210.38;;;-141.29;51.88
22025;BME280;11176;51.448;6.650;2022-07-04T09:59:56;45214.38;;;-141.29;52.66
22025;BME280;11176;51.448;6.650;2022-07-04T10:02:23;45212.38;;;-141.29;52.52
22025;BME280;11176;51.448;6.650;2022-07-04T10:04:51;45214.38;;;-141.29;50.32
22025;BME280;11176;51.448;6.650;2022-07-04T10:07:40;45210.38;;;-141.29;50.99
22025;BME280;11176;51.448;6.650;2022-07-04T10:10:30;45224.38;;;-141.29;49.08
22025;BME280;11176;51.448;6.650;2022-07-04T10:13:02;45202.38;;;-141.29;48.88
22025;BME280;11176;51.448;6.650;2022-07-04T10:15:29;45208.38;;;-141.29;47.18
22025;BME280;11176;51.448;6.650;2022-07-04T10:17:56;45208.38;;;-141.29;47.79
22025;BME280;11176;51.448;6.650;2022-07-04T10:20:23;45204.38;;;-141.29;48.57
22025;BME280;11176;51.448;6.650;2022-07-04T10:22:50;45202.38;;;-141.29;49.10
22025;BME280;11176;51.448;6.650;2022-07-04T10:25:16;45198.41;;;-141.29;46.71
22025;BME280;11176;51.448;6.650;2022-07-04T10:27:43;45200.41;;;-141.29;46.11
22025;BME280;11176;51.448;6.650;2022-07-04T10:30:14;45198.41;;;-141.29;44.82
22025;BME280;11176;51.448;6.650;2022-07-04T10:32:43;45194.41;;;-141.29;46.94
22025;BME280;11176;51.448;6.650;2022-07-04T10:35:17;45210.38;;;-141.29;46.48
22025;BME280;11176;51.448;6.650;2022-07-04T10:38:01;45194.41;;;-141.29;45.85
22025;BME280;11176;51.448;6.650;2022-07-04T10:40:47;45208.38;;;-141.29;46.52
22025;BME280;11176;51.448;6.650;2022-07-04T10:48:54;45190.41;;;-141.29;45.24
22025;BME280;11176;51.448;6.650;2022-07-04T10:54:08;45196.41;;;-141.29;45.51
22025;BME280;11176;51.448;6.650;2022-07-04T10:56:40;45164.44;;;-141.29;44.45
22025;BME280;11176;51.448;6.650;2022-07-04T10:59:18;45180.41;;;-141.29;44.05
22025;BME280;11176;51.448;6.650;2022-07-04T11:01:51;45174.41;;;-141.29;44.51
22025;BME280;11176;51.448;6.650;2022-07-04T11:07:11;45174.41;;;-141.29;42.72
22025;BME280;11176;51.448;6.650;2022-07-04T11:09:37;45172.41;;;-141.29;42.12
22025;BME280;11176;51.448;6.650;2022-07-04T11:12:04;45166.44;;;-141.29;42.51
22025;BME280;11176;51.448;6.650;2022-07-04T11:14:45;45164.44;;;-141.29;40.45
22025;BME280;11176;51.448;6.650;2022-07-04T11:17:20;45150.44;;;-141.29;40.46
22025;BME280;11176;51.448;6.650;2022-07-04T11:19:47;45162.44;;;-141.29;38.88
22025;BME280;11176;51.448;6.650;2022-07-04T11:22:23;45170.41;;;-141.29;39.48
22025;BME280;11176;51.448;6.650;2022-07-04T11:24:49;45154.44;;;-141.29;39.01
22025;BME280;11176;51.448;6.650;2022-07-04T11:27:16;45136.44;;;-141.29;40.56
22025;BME280;11176;51.448;6.650;2022-07-04T11:29:52;45146.44;;;-141.29;41.92
22025;BME280;11176;51.448;6.650;2022-07-04T11:32:20;45138.44;;;-141.29;38.17
22025;BME280;11176;51.448;6.650;2022-07-04T11:34:47;45142.44;;;-141.29;37.48
22025;BME280;11176;51.448;6.650;2022-07-04T11:37:15;45122.47;;;-141.29;37.84
22025;BME280;11176;51.448;6.650;2022-07-04T11:39:42;45130.44;;;-141.29;35.41
22025;BME280;11176;51.448;6.650;2022-07-04T11:42:08;45122.47;;;-141.29;38.07
22025;BME280;11176;51.448;6.650;2022-07-04T11:44:53;45126.47;;;-141.29;35.79
22025;BME280;11176;51.448;6.650;2022-07-04T11:50:11;45098.47;;;-141.29;34.82
22025;BME280;11176;51.448;6.650;2022-07-04T11:52:41;45118.47;;;-141.29;34.59
22025;BME280;11176;51.448;6.650;2022-07-04T11:55:27;45106.47;;;-141.29;34.21
22025;BME280;11176;51.448;6.650;2022-07-04T11:57:54;45106.47;;;-141.29;34.76
22025;BME280;11176;51.448;6.650;2022-07-04T12:00:26;45114.47;;;-141.29;34.99
22025;BME280;11176;51.448;6.650;2022-07-04T12:02:58;45104.47;;;-141.29;34.61
22025;BME280;11176;51.448;6.650;2022-07-04T12:05:25;45102.47;;;-141.29;34.61
22025;BME280;11176;51.448;6.650;2022-07-04T12:07:52;45102.47;;;-141.29;33.98
22025;BME280;11176;51.448;6.650;2022-07-04T12:10:38;45110.47;;;-141.29;32.78
22025;BME280;11176;51.448;6.650;2022-07-04T12:13:14;45102.47;;;-141.29;33.42
22025;BME280;11176;51.448;6.650;2022-07-04T12:15:45;45102.47;;;-141.29;33.98
22025;BME280;11176;51.448;6.650;2022-07-04T12:18:30;45106.47;;;-141.29;34.08
22025;BME280;11176;51.448;6.650;2022-07-04T12:21:14;45110.47;;;-141.29;34.45
22025;BME280;11176;51.448;6.650;2022-07-04T12:23:51;45110.47;;;-141.29;34.26
22025;BME280;11176;51.448;6.650;2022-07-04T12:26:33;45100.47;;;-141.29;34.45
22025;BME280;11176;51.448;6.650;2022-07-04T12:29:01;45098.47;;;-141.29;34.32
22025;BME280;11176;51.448;6.650;2022-07-04T12:31:41;45102.47;;;-141.29;34.00
22025;BME280;11176;51.448;6.650;2022-07-04T12:34:15;45108.47;;;-141.29;33.92
22025;BME280;11176;51.448;6.650;2022-07-04T12:36:52;45102.47;;;-141.29;34.13
22025;BME280;11176;51.448;6.650;2022-07-04T12:39:27;45086.50;;;-141.29;34.29
22025;BME280;11176;51.448;6.650;2022-07-04T12:42:08;45098.47;;;-141.29;34.19
22025;BME280;11176;51.448;6.650;2022-07-04T12:44:36;45090.50;;;-141.29;33.40
22025;BME280;11176;51.448;6.650;2022-07-04T12:47:04;45100.47;;;-141.29;32.38
22025;BME280;11176;51.448;6.650;2022-07-04T12:49:44;45086.50;;;-141.29;32.21
22025;BME280;11176;51.448;6.650;2022-07-04T12:52:14;45084.50;;;-141.29;32.30
22025;BME280;11176;51.448;6.650;2022-07-04T12:54:41;45074.50;;;-141.29;31.58
22025;BME280;11176;51.448;6.650;2022-07-04T12:57:15;45086.50;;;-141.29;32.25
22025;BME280;11176;51.448;6.650;2022-07-04T12:59:42;45060.50;;;-141.29;31.07
22025;BME280;11176;51.448;6.650;2022-07-04T13:02:13;45060.50;;;-141.29;31.49
22025;BME280;11176;51.448;6.650;2022-07-04T13:04:39;45062.50;;;-141.29;30.85
22025;BME280;11176;51.448;6.650;2022-07-04T13:07:15;45066.50;;;-141.29;31.96
22025;BME280;11176;51.448;6.650;2022-07-04T13:09:43;45070.50;;;-141.29;29.80
22025;BME280;11176;51.448;6.650;2022-07-04T13:12:12;45046.53;;;-141.29;29.87